首页
METAR-TAF:

METAR-TAF

机场 :

Bluefield, 西維吉尼亞州, 美国

纬度: 37-17-45N, 经度: 081-12-28W, 海拔: 871米

当前天气观测

该预报发布于1小时和6分钟前的20:52 UTC
风速21节,风向西转西南,有时为30节阵风
温度 20°C
湿度 35%
气压 1015 hPa
能見度: 16.1公里
天空无云

METAR: KBLF 292052Z AUTO 25021G30KT 10SM CLR 20/04 A2996 RMK AO2 PK WND 26036/2027 SLP116 T02000039 55000 TSNO $

时间: 17:58 (21:58 UTC)

预报

该预报发布于4小时和38分钟前的17:20 UTC
预报有效从29日的 18点(UTC)到 30日的 18点(UTC)
风速16节,风向西,有时为27节阵风
能見度: 10公里
散云层高于3500英尺
从 29日的 2000点(UTC)
风速15节,风向西,有时为32节阵风
能見度: 10公里
少量云层高于3500英尺
从 29日的 2300点(UTC)
风速14节,风向西,有时为24节阵风
能見度: 10公里
天空无云

TAF: KBLF 291720Z 2918/3018 26016G27KT P6SM SCT035 FM292000 27015G32KT P6SM FEW035 FM292300 26014G24KT P6SM SKC

超过4000个机场的气象观测和天气预报(METAR&TAF报告)。

可查询的气象台以黄色和红色小点在地图上表示。

将鼠标移到小点上方,可查看气象台名称。

然后点击查看天气观测和预报。

如需切换地图:点击带黑十字的绿色按钮放大地图;点击带横线的绿色按钮缩小地图;或者点击绿色箭头查看邻近地区的地图。


METAR-TAF: